METAR Data
IDs: Format: Raw Decoded Include TAF

Data at: 2355 UTC 24 Apr 2019

METAR for:KIIB (Independence Muni, IA, US)
Text:KIIB 242335Z AUTO 22006KT 10SM CLR 17/10 A2982 RMK AO2 T01740095
Temperature: 17.4°C ( 63°F)
Dewpoint: 9.5°C ( 49°F) [RH = 60%]
Pressure (altimeter):29.82 inches Hg (1009.9 mb)
Winds:from the SW (220 degrees) at 7 MPH (6 knots; 3.1 m/s)
Visibility:10 or more sm (16+ km)
Ceiling:at least 12,000 feet AGL
Clouds:sky clear below 12,000 feet AGL
QC Flag:automated observation with no human augmentation